createdAt,value
2023-09-13T00:03:45.568Z,100123.59
2023-09-13T00:08:48.514Z,100118.41
2023-09-13T00:13:51.340Z,100126.19
2023-09-13T00:18:54.078Z,100115.84
2023-09-13T00:23:56.730Z,100123.63
2023-09-13T00:28:59.394Z,100113.28
2023-09-13T00:34:02.776Z,100096.91
2023-09-13T00:39:06.927Z,100113.31
2023-09-13T00:44:09.627Z,100099.50
2023-09-13T00:49:12.393Z,100117.59
2023-09-13T00:54:15.382Z,100111.53
2023-09-13T00:59:20.112Z,100121.81
2023-09-13T01:04:23.251Z,100100.31
2023-09-13T01:09:28.015Z,100108.09
2023-09-13T01:14:30.692Z,100111.56
2023-09-13T01:20:08.217Z,100111.56
2023-09-13T01:25:18.946Z,100121.91
2023-09-13T01:30:23.766Z,100108.13
2023-09-13T01:35:26.580Z,100122.78
2023-09-13T01:40:34.129Z,100109.88
2023-09-13T01:45:38.445Z,100109.00
2023-09-13T01:50:41.979Z,100114.16
2023-09-13T01:55:45.017Z,100096.06
2023-09-13T02:00:48.128Z,100117.63
2023-09-13T02:05:51.086Z,100108.13
2023-09-13T02:10:54.076Z,100115.88
2023-09-13T02:15:56.876Z,100122.75
2023-09-13T02:20:59.801Z,100124.47
2023-09-13T02:26:02.588Z,100122.78
2023-09-13T02:31:05.664Z,100129.63
2023-09-13T02:36:08.822Z,100135.63
2023-09-13T02:41:12.165Z,100122.69
2023-09-13T02:46:15.007Z,100133.09
2023-09-13T02:51:17.922Z,100131.38
2023-09-13T02:56:20.778Z,100134.81
2023-09-13T03:01:23.809Z,100121.06
2023-09-13T03:06:26.660Z,100129.69
2023-09-13T03:11:31.036Z,100125.38
2023-09-13T03:16:34.163Z,100122.78
2023-09-13T03:21:38.020Z,100125.38
2023-09-13T03:26:41.000Z,100133.09
2023-09-13T03:31:44.608Z,100129.56
2023-09-13T03:36:51.192Z,100135.59
2023-09-13T03:41:54.545Z,100130.38
2023-09-13T03:46:58.238Z,100134.59
2023-09-13T03:52:02.826Z,100140.56
2023-09-13T03:57:07.044Z,100145.69
2023-09-13T04:02:10.177Z,100149.00
2023-09-13T04:07:13.235Z,100142.88
2023-09-13T04:12:16.120Z,100141.03
2023-09-13T04:17:19.852Z,100143.50
2023-09-13T04:22:22.966Z,100134.78
2023-09-13T04:27:26.432Z,100148.31
2023-09-13T04:32:30.306Z,100153.22
2023-09-13T04:37:34.377Z,100153.00
2023-09-13T04:42:51.356Z,100155.13
2023-09-13T04:47:55.033Z,100153.94
2023-09-13T04:52:57.725Z,100149.94
2023-09-13T04:58:00.957Z,100159.00
2023-09-13T05:03:04.042Z,100158.47
2023-09-13T05:08:06.892Z,100151.91
2023-09-13T05:13:10.229Z,100156.59
2023-09-13T05:18:13.236Z,100151.91
2023-09-13T05:23:15.905Z,100154.34
2023-09-13T05:28:18.570Z,100150.50
2023-09-13T05:33:21.438Z,100152.56
2023-09-13T05:38:24.810Z,100145.34
2023-09-13T05:43:30.449Z,100149.75
2023-09-13T05:48:34.178Z,100147.66
2023-09-13T05:53:37.016Z,100147.38
2023-09-13T05:58:44.774Z,100150.34
2023-09-13T06:03:48.153Z,100152.09
2023-09-13T06:08:50.968Z,100137.66
2023-09-13T06:13:53.688Z,100148.25
2023-09-13T06:18:56.452Z,100145.44
2023-09-13T06:23:59.168Z,100135.06
2023-09-13T06:29:03.446Z,100134.50
2023-09-13T06:34:21.986Z,100132.28
2023-09-13T06:39:28.324Z,100127.72
2023-09-13T06:44:45.495Z,100138.47
2023-09-13T06:49:51.861Z,100139.69
2023-09-13T06:54:56.058Z,100139.88
2023-09-13T07:00:04.530Z,100142.94
2023-09-13T07:10:14.158Z,100151.03
2023-09-13T07:34:52.432Z,100159.88
2023-09-13T07:39:55.389Z,100153.09
2023-09-13T07:44:58.194Z,100150.66
2023-09-13T07:50:01.713Z,100149.56
2023-09-13T07:55:06.486Z,100146.59
2023-09-13T08:00:09.750Z,100146.22
2023-09-13T08:05:14.938Z,100144.56
2023-09-13T08:10:17.708Z,100126.25
2023-09-13T08:15:30.863Z,100126.97
2023-09-13T08:20:41.678Z,100124.38
2023-09-13T08:25:45.526Z,100113.38
2023-09-13T08:30:50.509Z,100128.47
2023-09-13T08:35:53.212Z,100109.69
2023-09-13T08:40:56.309Z,100115.38
2023-09-13T08:46:01.486Z,100117.13
2023-09-13T08:51:05.362Z,100119.09
2023-09-13T08:56:10.236Z,100121.53
2023-09-13T09:01:14.816Z,100106.81
2023-09-13T09:06:19.389Z,100101.72
2023-09-13T09:11:27.104Z,100100.84
2023-09-13T09:16:32.363Z,100097.09
2023-09-13T09:21:39.272Z,100092.56
2023-09-13T09:26:41.887Z,100090.09
2023-09-13T09:31:44.623Z,100093.84
2023-09-13T09:36:48.312Z,100093.38
2023-09-13T09:41:59.549Z,100080.91
2023-09-13T09:47:02.256Z,100091.06
2023-09-13T09:52:05.934Z,100083.16
2023-09-13T09:57:09.584Z,100080.44
2023-09-13T10:02:12.360Z,100081.69
2023-09-13T10:07:15.256Z,100075.34
2023-09-13T10:12:17.936Z,100064.75
2023-09-13T10:17:21.690Z,100070.78
2023-09-13T10:22:26.800Z,100065.00
2023-09-13T10:27:30.897Z,100063.59
2023-09-13T10:32:44.094Z,100055.00
2023-09-13T10:38:25.917Z,100067.97
2023-09-13T10:43:29.186Z,100065.56
2023-09-13T10:48:32.739Z,100058.09
2023-09-13T10:53:36.464Z,100069.41
2023-09-13T10:58:40.540Z,100077.41
2023-09-13T11:03:43.971Z,100082.19
2023-09-13T11:08:47.433Z,100069.56
2023-09-13T11:13:53.900Z,100063.81
2023-09-13T11:18:58.552Z,100065.16
2023-09-13T11:24:04.662Z,100063.84
2023-09-13T11:29:28.886Z,100071.41
2023-09-13T11:34:35.972Z,100057.34
2023-09-13T11:39:40.061Z,100067.47
2023-09-13T11:44:59.090Z,100058.03
2023-09-13T11:55:27.083Z,100058.41
2023-09-13T12:05:54.059Z,100056.75
2023-09-13T12:11:12.853Z,100053.84
2023-09-13T12:16:18.973Z,100049.94
2023-09-13T12:21:22.019Z,100040.09
2023-09-13T12:26:27.461Z,100042.75
2023-09-13T12:31:30.060Z,100037.22
2023-09-13T12:36:33.658Z,100035.81
2023-09-13T12:41:36.410Z,100039.19
2023-09-13T12:46:41.207Z,100033.31
2023-09-13T12:51:44.340Z,100022.91
2023-09-13T12:56:47.008Z,100035.41
2023-09-13T13:01:55.911Z,100029.84
2023-09-13T13:07:01.157Z,100021.28
2023-09-13T13:12:04.267Z,100022.72
2023-09-13T13:17:07.012Z,100024.84
2023-09-13T13:22:13.245Z,100023.13
2023-09-13T13:27:16.038Z,100013.97
2023-09-13T13:32:19.060Z,100019.69
2023-09-13T13:37:21.657Z,100019.97
2023-09-13T13:42:24.368Z,100009.53
2023-09-13T13:47:27.132Z,100010.31
2023-09-13T13:52:29.852Z,100014.84
2023-09-13T13:57:43.489Z,100011.97
2023-09-13T14:02:47.869Z,100015.91
2023-09-13T14:07:50.920Z,100007.13
2023-09-13T14:12:57.573Z,100009.91
2023-09-13T14:18:00.402Z,100014.44
2023-09-13T14:23:04.310Z,100008.28
2023-09-13T14:28:10.709Z,100003.75
2023-09-13T14:33:18.140Z,100009.50
2023-09-13T14:38:22.214Z,100001.59
2023-09-13T14:43:25.066Z,100000.31
2023-09-13T14:48:28.021Z,99992.38
2023-09-13T14:53:31.018Z,99997.81
2023-09-13T14:58:36.475Z,99997.47
2023-09-13T15:03:39.670Z,99994.53
2023-09-13T15:08:42.525Z,99992.38
2023-09-13T15:13:47.269Z,99999.09
2023-09-13T15:18:51.180Z,100002.31
2023-09-13T15:23:54.076Z,100000.38
2023-09-13T15:28:57.883Z,100002.88
2023-09-13T15:34:02.398Z,100014.91
2023-09-13T15:39:05.998Z,100006.13
2023-09-13T15:44:08.684Z,100009.78
2023-09-13T15:49:11.548Z,100015.78
2023-09-13T15:54:14.833Z,100018.16
2023-09-13T15:59:17.515Z,100017.09
2023-09-13T16:04:20.435Z,100016.66
2023-09-13T16:09:23.227Z,100013.38
2023-09-13T16:14:34.457Z,100025.09
2023-09-13T16:19:37.409Z,100025.56
2023-09-13T16:24:40.168Z,100028.75
2023-09-13T16:29:42.905Z,100028.31
2023-09-13T16:34:45.682Z,100029.06
2023-09-13T16:39:48.408Z,100019.28
2023-09-13T16:44:51.092Z,100013.59
2023-09-13T16:49:53.806Z,100026.69
2023-09-13T16:54:59.412Z,100024.56
2023-09-13T17:00:03.048Z,100029.50
2023-09-13T17:05:08.115Z,100029.88
2023-09-13T17:10:10.936Z,100036.84
2023-09-13T17:15:13.639Z,100030.06
2023-09-13T17:20:16.592Z,100025.75
2023-09-13T17:25:19.339Z,100023.13
2023-09-13T17:30:22.211Z,100034.41
2023-09-13T17:35:25.161Z,100034.47
2023-09-13T17:40:28.659Z,100025.19
2023-09-13T17:45:31.726Z,100029.56
2023-09-13T17:50:35.277Z,100023.66
2023-09-13T17:55:38.014Z,100039.47
2023-09-13T18:00:40.963Z,100032.53
2023-09-13T18:05:45.321Z,100031.00
2023-09-13T18:10:48.126Z,100023.47
2023-09-13T18:15:50.967Z,100022.03
2023-09-13T18:20:54.183Z,100028.28
2023-09-13T18:25:57.097Z,100030.09
2023-09-13T18:31:07.699Z,100034.53
2023-09-13T18:36:10.600Z,100024.13
2023-09-13T18:41:13.344Z,100028.53
2023-09-13T18:46:16.362Z,100025.22
2023-09-13T18:51:19.305Z,100025.97
2023-09-13T18:56:21.968Z,100033.72
2023-09-13T19:01:24.748Z,100032.16
2023-09-13T19:06:27.640Z,100033.22
2023-09-13T19:11:30.417Z,100034.94
2023-09-13T19:16:34.698Z,100030.91
2023-09-13T19:21:37.982Z,100031.09
2023-09-13T19:26:42.171Z,100025.91
2023-09-13T19:31:45.619Z,100030.25
2023-09-13T19:36:48.396Z,100028.47
2023-09-13T19:41:51.414Z,100018.31
2023-09-13T19:46:54.175Z,100033.25
2023-09-13T19:51:57.004Z,100028.25
2023-09-13T19:57:01.756Z,100024.84
2023-09-13T20:02:07.112Z,100021.41
2023-09-13T20:07:11.389Z,100017.06
2023-09-13T20:12:14.029Z,100027.31
2023-09-13T20:17:16.719Z,100019.50
2023-09-13T20:22:19.363Z,100026.50
2023-09-13T20:27:22.029Z,100023.22
2023-09-13T20:32:24.674Z,100012.97
2023-09-13T20:37:28.263Z,100026.84
2023-09-13T20:42:31.089Z,100021.63
2023-09-13T20:47:35.832Z,100013.06
2023-09-13T20:52:38.844Z,100025.16
2023-09-13T20:57:41.517Z,100023.56
2023-09-13T21:02:44.203Z,100021.84
2023-09-13T21:07:46.825Z,100021.84
2023-09-13T21:12:49.567Z,100026.22
2023-09-13T21:17:52.457Z,100024.56
2023-09-13T21:22:55.075Z,100034.13
2023-09-13T21:27:57.728Z,100034.09
2023-09-13T21:33:00.608Z,100029.75
2023-09-13T21:38:03.433Z,100035.81
2023-09-13T21:43:06.074Z,100030.50
2023-09-13T21:48:10.453Z,100018.50
2023-09-13T21:53:16.897Z,100027.91
2023-09-13T21:58:21.081Z,100035.66
2023-09-13T22:03:25.901Z,100032.25
2023-09-13T22:08:28.654Z,100025.31
2023-09-13T22:13:31.383Z,100029.84
2023-09-13T22:18:34.207Z,100022.16
2023-09-13T22:23:37.017Z,100024.69
2023-09-13T22:28:39.752Z,100030.84
2023-09-13T22:33:42.483Z,100029.16
2023-09-13T22:38:54.421Z,100023.97
2023-09-13T22:44:05.306Z,100027.38
2023-09-13T22:49:08.026Z,100010.16
2023-09-13T22:54:10.723Z,100023.09
2023-09-13T22:59:13.446Z,100030.03
2023-09-13T23:04:16.354Z,100027.50
2023-09-13T23:09:20.048Z,100023.22
2023-09-13T23:14:23.748Z,100024.03
2023-09-13T23:19:26.609Z,100015.38
2023-09-13T23:24:30.789Z,100017.94
2023-09-13T23:29:34.153Z,100009.34
2023-09-13T23:34:36.888Z,100020.59
2023-09-13T23:39:39.513Z,100017.25
2023-09-13T23:44:42.187Z,100011.09
2023-09-13T23:49:44.852Z,99996.41
2023-09-13T23:54:47.560Z,100014.50
2023-09-13T23:59:51.936Z,100021.53
